sensor_id;sensor_type;location;lat;lon;timestamp;P1;durP1;ratioP1;P2;durP2;ratioP2
12110;SDS011;6119;52.372;8.990;2022-12-04T00:02:13;32.57;;;18.60;;
12110;SDS011;6119;52.372;8.990;2022-12-04T00:05:01;32.20;;;17.50;;
12110;SDS011;6119;52.372;8.990;2022-12-04T00:07:48;33.47;;;17.73;;
12110;SDS011;6119;52.372;8.990;2022-12-04T00:10:40;37.87;;;18.80;;
12110;SDS011;6119;52.372;8.990;2022-12-04T00:13:26;39.70;;;18.53;;
12110;SDS011;6119;52.372;8.990;2022-12-04T00:16:14;37.80;;;17.93;;
12110;SDS011;6119;52.372;8.990;2022-12-04T00:19:02;38.03;;;18.90;;
12110;SDS011;6119;52.372;8.990;2022-12-04T00:21:50;39.53;;;18.23;;
12110;SDS011;6119;52.372;8.990;2022-12-04T00:24:37;41.43;;;18.43;;
12110;SDS011;6119;52.372;8.990;2022-12-04T00:27:24;38.77;;;18.03;;
12110;SDS011;6119;52.372;8.990;2022-12-04T00:30:10;33.67;;;17.57;;
12110;SDS011;6119;52.372;8.990;2022-12-04T00:32:58;40.83;;;18.27;;
12110;SDS011;6119;52.372;8.990;2022-12-04T00:35:44;40.53;;;17.80;;
12110;SDS011;6119;52.372;8.990;2022-12-04T00:38:32;40.37;;;17.50;;
12110;SDS011;6119;52.372;8.990;2022-12-04T00:41:20;36.90;;;17.60;;
12110;SDS011;6119;52.372;8.990;2022-12-04T00:44:08;42.90;;;18.60;;
12110;SDS011;6119;52.372;8.990;2022-12-04T00:46:55;35.40;;;16.83;;
12110;SDS011;6119;52.372;8.990;2022-12-04T00:49:41;37.07;;;17.10;;
12110;SDS011;6119;52.372;8.990;2022-12-04T00:52:28;37.57;;;17.47;;
12110;SDS011;6119;52.372;8.990;2022-12-04T00:55:16;36.60;;;18.10;;
12110;SDS011;6119;52.372;8.990;2022-12-04T00:58:02;39.73;;;19.37;;
12110;SDS011;6119;52.372;8.990;2022-12-04T01:00:49;37.97;;;18.30;;
12110;SDS011;6119;52.372;8.990;2022-12-04T01:03:36;41.90;;;17.53;;
12110;SDS011;6119;52.372;8.990;2022-12-04T01:06:24;35.90;;;17.90;;
12110;SDS011;6119;52.372;8.990;2022-12-04T01:09:12;41.63;;;19.20;;
12110;SDS011;6119;52.372;8.990;2022-12-04T01:12:00;36.07;;;17.20;;
12110;SDS011;6119;52.372;8.990;2022-12-04T01:14:47;36.80;;;17.93;;
12110;SDS011;6119;52.372;8.990;2022-12-04T01:17:33;44.57;;;18.03;;
12110;SDS011;6119;52.372;8.990;2022-12-04T01:20:20;40.10;;;19.30;;
12110;SDS011;6119;52.372;8.990;2022-12-04T01:23:06;37.53;;;18.03;;
12110;SDS011;6119;52.372;8.990;2022-12-04T01:25:53;34.83;;;16.80;;
12110;SDS011;6119;52.372;8.990;2022-12-04T01:28:42;37.77;;;18.80;;
12110;SDS011;6119;52.372;8.990;2022-12-04T01:31:29;43.33;;;18.70;;
12110;SDS011;6119;52.372;8.990;2022-12-04T01:34:16;40.53;;;18.07;;
12110;SDS011;6119;52.372;8.990;2022-12-04T01:37:03;40.03;;;19.67;;
12110;SDS011;6119;52.372;8.990;2022-12-04T01:39:50;41.10;;;18.10;;
12110;SDS011;6119;52.372;8.990;2022-12-04T01:42:37;36.77;;;16.70;;
12110;SDS011;6119;52.372;8.990;2022-12-04T01:45:37;37.93;;;18.60;;
12110;SDS011;6119;52.372;8.990;2022-12-04T01:48:26;39.80;;;18.67;;
12110;SDS011;6119;52.372;8.990;2022-12-04T01:51:16;42.40;;;19.10;;
12110;SDS011;6119;52.372;8.990;2022-12-04T01:54:06;34.03;;;18.70;;
12110;SDS011;6119;52.372;8.990;2022-12-04T01:56:57;45.23;;;19.43;;
12110;SDS011;6119;52.372;8.990;2022-12-04T01:59:48;43.53;;;17.23;;
12110;SDS011;6119;52.372;8.990;2022-12-04T02:02:40;44.03;;;18.87;;
12110;SDS011;6119;52.372;8.990;2022-12-04T02:05:30;42.27;;;18.90;;
12110;SDS011;6119;52.372;8.990;2022-12-04T02:08:17;40.13;;;18.13;;
12110;SDS011;6119;52.372;8.990;2022-12-04T02:11:06;42.70;;;20.10;;
12110;SDS011;6119;52.372;8.990;2022-12-04T02:14:04;36.67;;;17.57;;
12110;SDS011;6119;52.372;8.990;2022-12-04T02:16:58;42.67;;;19.17;;
12110;SDS011;6119;52.372;8.990;2022-12-04T02:19:56;44.07;;;18.40;;
12110;SDS011;6119;52.372;8.990;2022-12-04T02:22:58;46.80;;;18.20;;
12110;SDS011;6119;52.372;8.990;2022-12-04T02:26:07;36.67;;;17.90;;
12110;SDS011;6119;52.372;8.990;2022-12-04T02:29:14;37.30;;;16.10;;
12110;SDS011;6119;52.372;8.990;2022-12-04T02:32:12;38.07;;;17.57;;
12110;SDS011;6119;52.372;8.990;2022-12-04T02:35:05;38.83;;;17.70;;
12110;SDS011;6119;52.372;8.990;2022-12-04T02:37:58;35.53;;;17.73;;
12110;SDS011;6119;52.372;8.990;2022-12-04T02:40:51;36.87;;;17.43;;
12110;SDS011;6119;52.372;8.990;2022-12-04T02:43:42;36.37;;;16.70;;
12110;SDS011;6119;52.372;8.990;2022-12-04T02:46:33;42.20;;;17.53;;
12110;SDS011;6119;52.372;8.990;2022-12-04T02:49:24;39.97;;;17.43;;
12110;SDS011;6119;52.372;8.990;2022-12-04T02:52:16;36.27;;;17.13;;
12110;SDS011;6119;52.372;8.990;2022-12-04T02:55:09;39.50;;;18.10;;
12110;SDS011;6119;52.372;8.990;2022-12-04T02:58:04;38.27;;;17.63;;
12110;SDS011;6119;52.372;8.990;2022-12-04T03:00:55;45.93;;;18.47;;
12110;SDS011;6119;52.372;8.990;2022-12-04T03:03:46;37.87;;;18.07;;
12110;SDS011;6119;52.372;8.990;2022-12-04T03:06:37;42.03;;;18.73;;
12110;SDS011;6119;52.372;8.990;2022-12-04T03:09:27;46.57;;;18.17;;
12110;SDS011;6119;52.372;8.990;2022-12-04T03:12:19;37.77;;;18.97;;
12110;SDS011;6119;52.372;8.990;2022-12-04T03:15:10;37.67;;;17.50;;
12110;SDS011;6119;52.372;8.990;2022-12-04T03:18:02;38.33;;;17.47;;
12110;SDS011;6119;52.372;8.990;2022-12-04T03:20:55;36.80;;;16.37;;
12110;SDS011;6119;52.372;8.990;2022-12-04T03:23:47;39.40;;;15.57;;
12110;SDS011;6119;52.372;8.990;2022-12-04T03:26:40;38.73;;;16.53;;
12110;SDS011;6119;52.372;8.990;2022-12-04T03:29:32;43.77;;;17.27;;
12110;SDS011;6119;52.372;8.990;2022-12-04T03:32:25;40.53;;;16.67;;
12110;SDS011;6119;52.372;8.990;2022-12-04T03:35:15;39.63;;;16.40;;
12110;SDS011;6119;52.372;8.990;2022-12-04T03:38:08;40.40;;;16.37;;
12110;SDS011;6119;52.372;8.990;2022-12-04T03:41:03;39.10;;;16.50;;
12110;SDS011;6119;52.372;8.990;2022-12-04T03:43:56;35.93;;;14.80;;
12110;SDS011;6119;52.372;8.990;2022-12-04T03:46:48;37.40;;;17.27;;
12110;SDS011;6119;52.372;8.990;2022-12-04T03:49:41;37.17;;;15.63;;
12110;SDS011;6119;52.372;8.990;2022-12-04T03:52:32;34.27;;;15.97;;
12110;SDS011;6119;52.372;8.990;2022-12-04T03:55:25;35.97;;;16.20;;
12110;SDS011;6119;52.372;8.990;2022-12-04T03:58:18;35.07;;;15.50;;
12110;SDS011;6119;52.372;8.990;2022-12-04T04:01:08;36.77;;;15.77;;
12110;SDS011;6119;52.372;8.990;2022-12-04T04:03:57;36.20;;;15.60;;
12110;SDS011;6119;52.372;8.990;2022-12-04T04:06:46;31.70;;;15.17;;
12110;SDS011;6119;52.372;8.990;2022-12-04T04:09:38;33.67;;;15.40;;
12110;SDS011;6119;52.372;8.990;2022-12-04T04:12:31;31.67;;;14.33;;
12110;SDS011;6119;52.372;8.990;2022-12-04T04:15:22;30.57;;;13.97;;
12110;SDS011;6119;52.372;8.990;2022-12-04T04:18:26;30.50;;;15.07;;
12110;SDS011;6119;52.372;8.990;2022-12-04T04:21:32;38.53;;;15.17;;
12110;SDS011;6119;52.372;8.990;2022-12-04T04:24:40;31.97;;;14.40;;
12110;SDS011;6119;52.372;8.990;2022-12-04T04:27:31;33.60;;;13.63;;
12110;SDS011;6119;52.372;8.990;2022-12-04T04:30:18;31.53;;;14.73;;
12110;SDS011;6119;52.372;8.990;2022-12-04T04:33:06;33.43;;;14.07;;
12110;SDS011;6119;52.372;8.990;2022-12-04T04:35:57;31.00;;;13.37;;
12110;SDS011;6119;52.372;8.990;2022-12-04T04:38:49;34.57;;;15.20;;
12110;SDS011;6119;52.372;8.990;2022-12-04T04:41:45;31.40;;;13.83;;
12110;SDS011;6119;52.372;8.990;2022-12-04T04:44:39;32.60;;;14.97;;
12110;SDS011;6119;52.372;8.990;2022-12-04T04:47:31;29.50;;;14.23;;
12110;SDS011;6119;52.372;8.990;2022-12-04T04:50:21;31.63;;;15.07;;
12110;SDS011;6119;52.372;8.990;2022-12-04T04:53:09;27.17;;;13.73;;
12110;SDS011;6119;52.372;8.990;2022-12-04T04:56:00;27.13;;;12.90;;
12110;SDS011;6119;52.372;8.990;2022-12-04T04:58:49;32.03;;;13.87;;
12110;SDS011;6119;52.372;8.990;2022-12-04T05:01:37;32.63;;;15.00;;
12110;SDS011;6119;52.372;8.990;2022-12-04T05:04:25;27.47;;;14.40;;
12110;SDS011;6119;52.372;8.990;2022-12-04T05:07:11;28.30;;;14.53;;
12110;SDS011;6119;52.372;8.990;2022-12-04T05:09:58;27.60;;;13.30;;
12110;SDS011;6119;52.372;8.990;2022-12-04T05:12:44;29.47;;;14.30;;
12110;SDS011;6119;52.372;8.990;2022-12-04T05:15:31;28.47;;;13.73;;
12110;SDS011;6119;52.372;8.990;2022-12-04T05:18:19;32.47;;;14.77;;
12110;SDS011;6119;52.372;8.990;2022-12-04T05:21:06;30.53;;;14.73;;
12110;SDS011;6119;52.372;8.990;2022-12-04T05:23:52;29.30;;;13.67;;
12110;SDS011;6119;52.372;8.990;2022-12-04T05:26:39;36.00;;;15.03;;
12110;SDS011;6119;52.372;8.990;2022-12-04T05:29:25;30.73;;;14.37;;
12110;SDS011;6119;52.372;8.990;2022-12-04T05:32:19;30.03;;;14.67;;
12110;SDS011;6119;52.372;8.990;2022-12-04T05:35:08;29.83;;;14.47;;
12110;SDS011;6119;52.372;8.990;2022-12-04T05:37:55;33.80;;;15.13;;
12110;SDS011;6119;52.372;8.990;2022-12-04T05:40:42;38.80;;;15.33;;
12110;SDS011;6119;52.372;8.990;2022-12-04T05:43:29;36.27;;;14.17;;
12110;SDS011;6119;52.372;8.990;2022-12-04T05:46:16;35.30;;;15.77;;
12110;SDS011;6119;52.372;8.990;2022-12-04T05:49:03;31.13;;;14.63;;
12110;SDS011;6119;52.372;8.990;2022-12-04T05:51:51;28.67;;;14.50;;
12110;SDS011;6119;52.372;8.990;2022-12-04T05:54:38;33.37;;;14.53;;
12110;SDS011;6119;52.372;8.990;2022-12-04T05:57:24;33.93;;;16.00;;
12110;SDS011;6119;52.372;8.990;2022-12-04T06:00:14;34.67;;;16.10;;
12110;SDS011;6119;52.372;8.990;2022-12-04T06:03:02;29.83;;;15.23;;
12110;SDS011;6119;52.372;8.990;2022-12-04T06:05:49;33.93;;;15.03;;
12110;SDS011;6119;52.372;8.990;2022-12-04T06:08:37;32.03;;;15.40;;
12110;SDS011;6119;52.372;8.990;2022-12-04T06:11:24;32.83;;;16.03;;
12110;SDS011;6119;52.372;8.990;2022-12-04T06:14:13;34.00;;;15.70;;
12110;SDS011;6119;52.372;8.990;2022-12-04T06:17:00;36.67;;;16.53;;
12110;SDS011;6119;52.372;8.990;2022-12-04T06:19:47;33.57;;;15.07;;
12110;SDS011;6119;52.372;8.990;2022-12-04T06:22:33;37.17;;;16.27;;
12110;SDS011;6119;52.372;8.990;2022-12-04T06:25:21;36.13;;;16.33;;
12110;SDS011;6119;52.372;8.990;2022-12-04T06:28:08;34.80;;;16.53;;
12110;SDS011;6119;52.372;8.990;2022-12-04T06:30:54;32.30;;;17.00;;
12110;SDS011;6119;52.372;8.990;2022-12-04T06:33:45;37.93;;;17.20;;
12110;SDS011;6119;52.372;8.990;2022-12-04T06:36:32;33.20;;;16.57;;
12110;SDS011;6119;52.372;8.990;2022-12-04T06:39:18;34.67;;;16.67;;
12110;SDS011;6119;52.372;8.990;2022-12-04T06:42:06;38.57;;;17.43;;
12110;SDS011;6119;52.372;8.990;2022-12-04T06:44:53;36.00;;;17.60;;
12110;SDS011;6119;52.372;8.990;2022-12-04T06:47:39;38.47;;;17.23;;
12110;SDS011;6119;52.372;8.990;2022-12-04T06:50:26;40.33;;;17.50;;
12110;SDS011;6119;52.372;8.990;2022-12-04T06:53:13;38.67;;;17.57;;
12110;SDS011;6119;52.372;8.990;2022-12-04T06:56:00;36.97;;;18.20;;
12110;SDS011;6119;52.372;8.990;2022-12-04T06:58:50;40.27;;;17.80;;
12110;SDS011;6119;52.372;8.990;2022-12-04T07:01:38;43.30;;;18.33;;
12110;SDS011;6119;52.372;8.990;2022-12-04T07:04:25;41.77;;;19.33;;
12110;SDS011;6119;52.372;8.990;2022-12-04T07:07:12;40.73;;;18.90;;
12110;SDS011;6119;52.372;8.990;2022-12-04T07:09:58;42.10;;;19.40;;
12110;SDS011;6119;52.372;8.990;2022-12-04T07:12:45;43.17;;;18.73;;
12110;SDS011;6119;52.372;8.990;2022-12-04T07:15:33;36.37;;;18.33;;
12110;SDS011;6119;52.372;8.990;2022-12-04T07:18:20;41.77;;;19.40;;
12110;SDS011;6119;52.372;8.990;2022-12-04T07:21:08;38.73;;;18.47;;
12110;SDS011;6119;52.372;8.990;2022-12-04T07:23:56;43.47;;;20.00;;
12110;SDS011;6119;52.372;8.990;2022-12-04T07:26:45;41.00;;;19.30;;
12110;SDS011;6119;52.372;8.990;2022-12-04T07:29:32;41.90;;;19.77;;
12110;SDS011;6119;52.372;8.990;2022-12-04T07:32:19;34.00;;;17.30;;
12110;SDS011;6119;52.372;8.990;2022-12-04T07:35:06;40.20;;;18.57;;
12110;SDS011;6119;52.372;8.990;2022-12-04T07:37:53;42.87;;;18.57;;
12110;SDS011;6119;52.372;8.990;2022-12-04T07:40:40;41.77;;;19.47;;
12110;SDS011;6119;52.372;8.990;2022-12-04T07:43:27;45.97;;;19.60;;
12110;SDS011;6119;52.372;8.990;2022-12-04T07:46:15;45.90;;;20.10;;
12110;SDS011;6119;52.372;8.990;2022-12-04T07:49:05;45.67;;;20.37;;
12110;SDS011;6119;52.372;8.990;2022-12-04T07:51:52;44.47;;;19.33;;
12110;SDS011;6119;52.372;8.990;2022-12-04T07:54:38;43.13;;;19.93;;
12110;SDS011;6119;52.372;8.990;2022-12-04T07:57:26;40.17;;;19.37;;
12110;SDS011;6119;52.372;8.990;2022-12-04T08:00:13;43.03;;;18.97;;
12110;SDS011;6119;52.372;8.990;2022-12-04T08:03:00;46.20;;;20.53;;
12110;SDS011;6119;52.372;8.990;2022-12-04T08:05:48;42.20;;;19.50;;
12110;SDS011;6119;52.372;8.990;2022-12-04T08:08:35;39.07;;;19.20;;
12110;SDS011;6119;52.372;8.990;2022-12-04T08:11:23;45.70;;;20.27;;
12110;SDS011;6119;52.372;8.990;2022-12-04T08:14:10;43.53;;;19.60;;
12110;SDS011;6119;52.372;8.990;2022-12-04T08:16:57;43.17;;;20.17;;
12110;SDS011;6119;52.372;8.990;2022-12-04T08:19:44;39.33;;;19.73;;
12110;SDS011;6119;52.372;8.990;2022-12-04T08:22:32;38.50;;;18.80;;
12110;SDS011;6119;52.372;8.990;2022-12-04T08:25:19;38.30;;;18.93;;
12110;SDS011;6119;52.372;8.990;2022-12-04T08:28:06;40.20;;;18.93;;
12110;SDS011;6119;52.372;8.990;2022-12-04T08:30:53;38.67;;;18.73;;
12110;SDS011;6119;52.372;8.990;2022-12-04T08:33:40;45.10;;;19.20;;
12110;SDS011;6119;52.372;8.990;2022-12-04T08:36:28;40.23;;;19.67;;
12110;SDS011;6119;52.372;8.990;2022-12-04T08:39:16;36.63;;;18.70;;
12110;SDS011;6119;52.372;8.990;2022-12-04T08:42:03;35.97;;;17.87;;
12110;SDS011;6119;52.372;8.990;2022-12-04T08:44:49;38.90;;;18.17;;
12110;SDS011;6119;52.372;8.990;2022-12-04T08:47:36;38.00;;;18.43;;
12110;SDS011;6119;52.372;8.990;2022-12-04T08:50:23;36.13;;;17.80;;
12110;SDS011;6119;52.372;8.990;2022-12-04T08:53:10;37.40;;;17.07;;
12110;SDS011;6119;52.372;8.990;2022-12-04T08:55:59;35.23;;;17.87;;
12110;SDS011;6119;52.372;8.990;2022-12-04T08:58:45;37.43;;;18.10;;
12110;SDS011;6119;52.372;8.990;2022-12-04T09:01:32;33.73;;;17.90;;
12110;SDS011;6119;52.372;8.990;2022-12-04T09:04:19;34.33;;;17.07;;
12110;SDS011;6119;52.372;8.990;2022-12-04T09:07:06;35.03;;;16.70;;
12110;SDS011;6119;52.372;8.990;2022-12-04T09:09:52;37.40;;;18.20;;
12110;SDS011;6119;52.372;8.990;2022-12-04T09:12:41;34.53;;;17.03;;
12110;SDS011;6119;52.372;8.990;2022-12-04T09:15:27;35.57;;;17.17;;
12110;SDS011;6119;52.372;8.990;2022-12-04T09:18:14;35.70;;;18.13;;
12110;SDS011;6119;52.372;8.990;2022-12-04T09:21:02;36.20;;;16.67;;
12110;SDS011;6119;52.372;8.990;2022-12-04T09:23:51;35.30;;;18.40;;
12110;SDS011;6119;52.372;8.990;2022-12-04T09:26:38;32.13;;;16.30;;
12110;SDS011;6119;52.372;8.990;2022-12-04T09:29:26;35.47;;;17.67;;
12110;SDS011;6119;52.372;8.990;2022-12-04T09:32:12;37.27;;;17.27;;
12110;SDS011;6119;52.372;8.990;2022-12-04T09:34:59;34.87;;;16.97;;
12110;SDS011;6119;52.372;8.990;2022-12-04T09:37:46;39.13;;;18.03;;
12110;SDS011;6119;52.372;8.990;2022-12-04T09:40:33;30.10;;;16.63;;
12110;SDS011;6119;52.372;8.990;2022-12-04T09:43:28;32.10;;;16.73;;
12110;SDS011;6119;52.372;8.990;2022-12-04T09:46:22;32.60;;;16.40;;
12110;SDS011;6119;52.372;8.990;2022-12-04T09:49:14;36.13;;;18.23;;
12110;SDS011;6119;52.372;8.990;2022-12-04T09:52:06;32.10;;;17.47;;
12110;SDS011;6119;52.372;8.990;2022-12-04T09:55:09;32.60;;;16.73;;
12110;SDS011;6119;52.372;8.990;2022-12-04T09:58:02;37.90;;;18.73;;
12110;SDS011;6119;52.372;8.990;2022-12-04T10:00:50;35.30;;;17.30;;
12110;SDS011;6119;52.372;8.990;2022-12-04T10:03:39;29.30;;;15.37;;
12110;SDS011;6119;52.372;8.990;2022-12-04T10:06:26;35.07;;;17.17;;
12110;SDS011;6119;52.372;8.990;2022-12-04T10:09:21;36.00;;;16.83;;
12110;SDS011;6119;52.372;8.990;2022-12-04T10:12:14;35.73;;;16.70;;
12110;SDS011;6119;52.372;8.990;2022-12-04T10:15:11;38.00;;;16.40;;
12110;SDS011;6119;52.372;8.990;2022-12-04T10:18:14;34.83;;;16.67;;
12110;SDS011;6119;52.372;8.990;2022-12-04T10:21:14;36.63;;;18.67;;
12110;SDS011;6119;52.372;8.990;2022-12-04T10:24:14;37.50;;;17.13;;
12110;SDS011;6119;52.372;8.990;2022-12-04T10:27:17;34.00;;;16.93;;
12110;SDS011;6119;52.372;8.990;2022-12-04T10:30:15;36.80;;;18.03;;
12110;SDS011;6119;52.372;8.990;2022-12-04T10:33:10;43.83;;;17.97;;
12110;SDS011;6119;52.372;8.990;2022-12-04T10:36:01;41.20;;;18.23;;
12110;SDS011;6119;52.372;8.990;2022-12-04T10:38:50;30.40;;;17.27;;
12110;SDS011;6119;52.372;8.990;2022-12-04T10:41:42;33.33;;;17.07;;
12110;SDS011;6119;52.372;8.990;2022-12-04T10:44:36;36.90;;;18.40;;
12110;SDS011;6119;52.372;8.990;2022-12-04T10:47:24;37.83;;;17.73;;
12110;SDS011;6119;52.372;8.990;2022-12-04T10:53:00;41.20;;;18.33;;
12110;SDS011;6119;52.372;8.990;2022-12-04T10:55:49;37.10;;;18.17;;
12110;SDS011;6119;52.372;8.990;2022-12-04T10:58:35;37.40;;;18.60;;
12110;SDS011;6119;52.372;8.990;2022-12-04T11:01:22;33.93;;;17.73;;
12110;SDS011;6119;52.372;8.990;2022-12-04T11:04:17;41.17;;;19.37;;
12110;SDS011;6119;52.372;8.990;2022-12-04T11:07:07;41.10;;;19.23;;
12110;SDS011;6119;52.372;8.990;2022-12-04T11:10:02;41.13;;;19.03;;
12110;SDS011;6119;52.372;8.990;2022-12-04T11:12:56;38.37;;;18.97;;
12110;SDS011;6119;52.372;8.990;2022-12-04T11:15:45;39.30;;;18.67;;
12110;SDS011;6119;52.372;8.990;2022-12-04T11:18:34;40.10;;;19.23;;
12110;SDS011;6119;52.372;8.990;2022-12-04T11:21:32;37.50;;;19.07;;
12110;SDS011;6119;52.372;8.990;2022-12-04T11:24:20;42.20;;;18.30;;
12110;SDS011;6119;52.372;8.990;2022-12-04T11:27:15;45.87;;;18.50;;
12110;SDS011;6119;52.372;8.990;2022-12-04T11:30:08;43.10;;;18.83;;
12110;SDS011;6119;52.372;8.990;2022-12-04T11:33:00;43.20;;;18.93;;
12110;SDS011;6119;52.372;8.990;2022-12-04T11:35:50;37.20;;;18.57;;
12110;SDS011;6119;52.372;8.990;2022-12-04T11:38:40;42.57;;;19.73;;
12110;SDS011;6119;52.372;8.990;2022-12-04T11:41:28;38.77;;;19.70;;
12110;SDS011;6119;52.372;8.990;2022-12-04T11:44:19;39.40;;;18.93;;
12110;SDS011;6119;52.372;8.990;2022-12-04T11:47:15;39.20;;;18.50;;
12110;SDS011;6119;52.372;8.990;2022-12-04T11:50:06;42.37;;;20.30;;
12110;SDS011;6119;52.372;8.990;2022-12-04T11:53:01;38.30;;;17.37;;
12110;SDS011;6119;52.372;8.990;2022-12-04T11:56:03;37.57;;;17.73;;
12110;SDS011;6119;52.372;8.990;2022-12-04T12:02:21;39.70;;;18.47;;
12110;SDS011;6119;52.372;8.990;2022-12-04T12:05:36;37.10;;;18.93;;
12110;SDS011;6119;52.372;8.990;2022-12-04T12:08:51;40.50;;;18.70;;
12110;SDS011;6119;52.372;8.990;2022-12-04T12:11:48;36.83;;;18.33;;
12110;SDS011;6119;52.372;8.990;2022-12-04T12:14:42;41.63;;;18.80;;
12110;SDS011;6119;52.372;8.990;2022-12-04T12:17:37;43.90;;;18.43;;
12110;SDS011;6119;52.372;8.990;2022-12-04T12:20:31;36.80;;;18.73;;
12110;SDS011;6119;52.372;8.990;2022-12-04T12:23:24;43.10;;;18.73;;
12110;SDS011;6119;52.372;8.990;2022-12-04T12:26:28;35.60;;;17.97;;
12110;SDS011;6119;52.372;8.990;2022-12-04T12:29:30;41.23;;;18.27;;
12110;SDS011;6119;52.372;8.990;2022-12-04T12:32:42;44.80;;;19.47;;
12110;SDS011;6119;52.372;8.990;2022-12-04T12:35:44;40.63;;;19.03;;
12110;SDS011;6119;52.372;8.990;2022-12-04T12:38:37;41.63;;;18.70;;
12110;SDS011;6119;52.372;8.990;2022-12-04T12:41:29;39.27;;;20.40;;
12110;SDS011;6119;52.372;8.990;2022-12-04T12:44:23;43.37;;;19.00;;
12110;SDS011;6119;52.372;8.990;2022-12-04T12:47:16;46.07;;;20.57;;
12110;SDS011;6119;52.372;8.990;2022-12-04T12:50:11;41.97;;;19.60;;
12110;SDS011;6119;52.372;8.990;2022-12-04T12:53:04;41.20;;;19.93;;
12110;SDS011;6119;52.372;8.990;2022-12-04T12:55:56;41.50;;;19.33;;
12110;SDS011;6119;52.372;8.990;2022-12-04T12:58:47;40.67;;;19.27;;
12110;SDS011;6119;52.372;8.990;2022-12-04T13:01:43;42.67;;;19.63;;
12110;SDS011;6119;52.372;8.990;2022-12-04T13:04:34;40.97;;;19.23;;
12110;SDS011;6119;52.372;8.990;2022-12-04T13:07:28;37.93;;;18.77;;
12110;SDS011;6119;52.372;8.990;2022-12-04T13:10:24;43.10;;;19.47;;
12110;SDS011;6119;52.372;8.990;2022-12-04T13:13:17;46.50;;;20.97;;
12110;SDS011;6119;52.372;8.990;2022-12-04T13:16:11;42.07;;;18.90;;
12110;SDS011;6119;52.372;8.990;2022-12-04T13:19:05;42.30;;;19.80;;
12110;SDS011;6119;52.372;8.990;2022-12-04T13:21:59;40.50;;;18.90;;
12110;SDS011;6119;52.372;8.990;2022-12-04T13:25:09;42.17;;;18.57;;
12110;SDS011;6119;52.372;8.990;2022-12-04T13:28:13;34.67;;;18.93;;
12110;SDS011;6119;52.372;8.990;2022-12-04T13:31:13;37.97;;;18.37;;
12110;SDS011;6119;52.372;8.990;2022-12-04T13:37:29;35.47;;;17.27;;
12110;SDS011;6119;52.372;8.990;2022-12-04T13:40:36;37.17;;;17.93;;
12110;SDS011;6119;52.372;8.990;2022-12-04T13:43:29;35.70;;;17.37;;
12110;SDS011;6119;52.372;8.990;2022-12-04T13:46:26;33.37;;;17.50;;
12110;SDS011;6119;52.372;8.990;2022-12-04T13:49:22;37.23;;;17.17;;
12110;SDS011;6119;52.372;8.990;2022-12-04T13:52:19;35.47;;;16.93;;
12110;SDS011;6119;52.372;8.990;2022-12-04T13:55:21;32.30;;;17.40;;
12110;SDS011;6119;52.372;8.990;2022-12-04T13:58:26;36.97;;;17.93;;
12110;SDS011;6119;52.372;8.990;2022-12-04T14:01:22;29.83;;;15.97;;
12110;SDS011;6119;52.372;8.990;2022-12-04T14:04:20;33.17;;;16.67;;
12110;SDS011;6119;52.372;8.990;2022-12-04T14:07:18;33.47;;;16.27;;
12110;SDS011;6119;52.372;8.990;2022-12-04T14:10:22;36.57;;;15.83;;
12110;SDS011;6119;52.372;8.990;2022-12-04T14:13:17;33.70;;;16.00;;
12110;SDS011;6119;52.372;8.990;2022-12-04T14:16:08;37.00;;;17.17;;
12110;SDS011;6119;52.372;8.990;2022-12-04T14:19:05;35.87;;;16.77;;
12110;SDS011;6119;52.372;8.990;2022-12-04T14:21:52;37.77;;;16.37;;
12110;SDS011;6119;52.372;8.990;2022-12-04T14:24:39;36.40;;;16.23;;
12110;SDS011;6119;52.372;8.990;2022-12-04T14:27:31;32.67;;;15.77;;
12110;SDS011;6119;52.372;8.990;2022-12-04T14:30:20;32.53;;;15.67;;
12110;SDS011;6119;52.372;8.990;2022-12-04T14:33:12;28.07;;;15.53;;
12110;SDS011;6119;52.372;8.990;2022-12-04T14:36:03;37.47;;;17.00;;
12110;SDS011;6119;52.372;8.990;2022-12-04T14:39:04;33.77;;;15.43;;
12110;SDS011;6119;52.372;8.990;2022-12-04T14:42:03;34.17;;;16.13;;
12110;SDS011;6119;52.372;8.990;2022-12-04T14:44:53;27.37;;;15.87;;
12110;SDS011;6119;52.372;8.990;2022-12-04T14:47:44;35.17;;;16.47;;
12110;SDS011;6119;52.372;8.990;2022-12-04T14:50:44;32.63;;;16.33;;
12110;SDS011;6119;52.372;8.990;2022-12-04T14:53:38;32.07;;;16.37;;
12110;SDS011;6119;52.372;8.990;2022-12-04T14:56:35;38.10;;;17.23;;
12110;SDS011;6119;52.372;8.990;2022-12-04T14:59:38;32.87;;;16.10;;
12110;SDS011;6119;52.372;8.990;2022-12-04T15:02:32;34.90;;;16.97;;
12110;SDS011;6119;52.372;8.990;2022-12-04T15:05:24;31.00;;;16.70;;
12110;SDS011;6119;52.372;8.990;2022-12-04T15:08:13;38.53;;;17.87;;
12110;SDS011;6119;52.372;8.990;2022-12-04T15:11:00;38.83;;;17.73;;
12110;SDS011;6119;52.372;8.990;2022-12-04T15:14:10;33.03;;;16.53;;
12110;SDS011;6119;52.372;8.990;2022-12-04T15:17:01;33.27;;;16.37;;
12110;SDS011;6119;52.372;8.990;2022-12-04T15:19:48;35.47;;;17.27;;
12110;SDS011;6119;52.372;8.990;2022-12-04T15:22:34;36.57;;;17.13;;
12110;SDS011;6119;52.372;8.990;2022-12-04T15:25:23;32.60;;;15.40;;
12110;SDS011;6119;52.372;8.990;2022-12-04T15:28:13;33.73;;;17.40;;
12110;SDS011;6119;52.372;8.990;2022-12-04T15:31:05;32.23;;;16.63;;
12110;SDS011;6119;52.372;8.990;2022-12-04T15:33:59;38.63;;;17.83;;
12110;SDS011;6119;52.372;8.990;2022-12-04T15:36:49;36.60;;;16.63;;
12110;SDS011;6119;52.372;8.990;2022-12-04T15:39:38;34.90;;;17.03;;
12110;SDS011;6119;52.372;8.990;2022-12-04T15:42:28;37.77;;;17.37;;
12110;SDS011;6119;52.372;8.990;2022-12-04T15:45:23;35.47;;;17.23;;
12110;SDS011;6119;52.372;8.990;2022-12-04T15:48:21;38.97;;;17.43;;
12110;SDS011;6119;52.372;8.990;2022-12-04T15:51:09;33.47;;;16.87;;
12110;SDS011;6119;52.372;8.990;2022-12-04T15:53:58;35.10;;;17.80;;
12110;SDS011;6119;52.372;8.990;2022-12-04T15:56:55;35.77;;;17.50;;
12110;SDS011;6119;52.372;8.990;2022-12-04T15:59:47;36.70;;;17.00;;
12110;SDS011;6119;52.372;8.990;2022-12-04T16:02:38;33.97;;;16.93;;
12110;SDS011;6119;52.372;8.990;2022-12-04T16:05:27;35.23;;;16.33;;
12110;SDS011;6119;52.372;8.990;2022-12-04T16:08:23;36.30;;;17.90;;
12110;SDS011;6119;52.372;8.990;2022-12-04T16:11:22;39.40;;;18.47;;
12110;SDS011;6119;52.372;8.990;2022-12-04T16:14:15;42.83;;;18.93;;
12110;SDS011;6119;52.372;8.990;2022-12-04T16:17:04;36.63;;;17.23;;
12110;SDS011;6119;52.372;8.990;2022-12-04T16:19:51;34.00;;;16.40;;
12110;SDS011;6119;52.372;8.990;2022-12-04T16:22:37;33.13;;;15.33;;
12110;SDS011;6119;52.372;8.990;2022-12-04T16:25:25;33.80;;;16.97;;
12110;SDS011;6119;52.372;8.990;2022-12-04T16:28:15;40.43;;;16.83;;
12110;SDS011;6119;52.372;8.990;2022-12-04T16:31:02;40.87;;;17.20;;
12110;SDS011;6119;52.372;8.990;2022-12-04T16:33:50;34.97;;;16.63;;
12110;SDS011;6119;52.372;8.990;2022-12-04T16:36:37;39.20;;;17.63;;
12110;SDS011;6119;52.372;8.990;2022-12-04T16:39:24;34.30;;;16.80;;
12110;SDS011;6119;52.372;8.990;2022-12-04T16:42:13;35.03;;;17.27;;
12110;SDS011;6119;52.372;8.990;2022-12-04T16:45:02;34.30;;;16.47;;
12110;SDS011;6119;52.372;8.990;2022-12-04T16:48:03;36.70;;;17.37;;
12110;SDS011;6119;52.372;8.990;2022-12-04T16:50:51;37.37;;;17.43;;
12110;SDS011;6119;52.372;8.990;2022-12-04T16:53:38;36.00;;;16.60;;
12110;SDS011;6119;52.372;8.990;2022-12-04T16:56:25;35.50;;;17.13;;
12110;SDS011;6119;52.372;8.990;2022-12-04T16:59:11;34.63;;;16.83;;
12110;SDS011;6119;52.372;8.990;2022-12-04T17:01:58;33.50;;;17.23;;
12110;SDS011;6119;52.372;8.990;2022-12-04T17:04:46;30.03;;;16.03;;